sensor_id;sensor_type;location;lat;lon;timestamp;pressure;altitude;pressure_sealevel;temperature;humidity
804;BME280;25687;49.976;8.240;2023-06-10T00:02:15;99806.56;;;20.30;100.00
804;BME280;25687;49.976;8.240;2023-06-10T00:04:42;99799.34;;;20.24;100.00
804;BME280;25687;49.976;8.240;2023-06-10T00:07:07;99802.81;;;20.24;100.00
804;BME280;25687;49.976;8.240;2023-06-10T00:09:37;99799.19;;;20.25;100.00
804;BME280;25687;49.976;8.240;2023-06-10T00:12:07;99799.97;;;20.18;100.00
804;BME280;25687;49.976;8.240;2023-06-10T00:14:34;99799.97;;;20.18;100.00
804;BME280;25687;49.976;8.240;2023-06-10T00:17:00;99788.41;;;20.20;100.00
804;BME280;25687;49.976;8.240;2023-06-10T00:19:25;99789.69;;;20.16;100.00
804;BME280;25687;49.976;8.240;2023-06-10T00:21:51;99791.63;;;20.14;100.00
804;BME280;25687;49.976;8.240;2023-06-10T00:24:17;99794.38;;;20.12;100.00
804;BME280;25687;49.976;8.240;2023-06-10T00:26:42;99789.69;;;20.16;100.00
804;BME280;25687;49.976;8.240;2023-06-10T00:29:08;99789.84;;;20.14;100.00
804;BME280;25687;49.976;8.240;2023-06-10T00:31:34;99796.81;;;20.06;100.00
804;BME280;25687;49.976;8.240;2023-06-10T00:33:59;99797.91;;;20.03;100.00
804;BME280;25687;49.976;8.240;2023-06-10T00:36:25;99791.72;;;20.04;100.00
804;BME280;25687;49.976;8.240;2023-06-10T00:38:50;99795.16;;;20.05;100.00
804;BME280;25687;49.976;8.240;2023-06-10T00:41:15;99791.97;;;19.93;100.00
804;BME280;25687;49.976;8.240;2023-06-10T00:43:41;99796.22;;;19.94;100.00
804;BME280;25687;49.976;8.240;2023-06-10T00:46:06;99795.91;;;19.97;100.00
804;BME280;25687;49.976;8.240;2023-06-10T00:48:32;99799.44;;;19.88;100.00
804;BME280;25687;49.976;8.240;2023-06-10T00:50:57;99802.78;;;19.98;100.00
804;BME280;25687;49.976;8.240;2023-06-10T00:53:23;99800.25;;;19.88;100.00
804;BME280;25687;49.976;8.240;2023-06-10T00:55:50;99801.66;;;19.82;100.00
804;BME280;25687;49.976;8.240;2023-06-10T00:58:15;99801.09;;;19.89;100.00
804;BME280;25687;49.976;8.240;2023-06-10T01:00:41;99804.44;;;19.81;100.00
804;BME280;25687;49.976;8.240;2023-06-10T01:03:06;99801.25;;;19.87;100.00
804;BME280;25687;49.976;8.240;2023-06-10T01:05:36;99803.22;;;19.75;100.00
804;BME280;25687;49.976;8.240;2023-06-10T01:13:07;99793.09;;;19.54;100.00
804;BME280;25687;49.976;8.240;2023-06-10T01:15:37;99801.16;;;19.43;100.00
804;BME280;25687;49.976;8.240;2023-06-10T01:18:04;99802.72;;;19.35;100.00
804;BME280;25687;49.976;8.240;2023-06-10T01:20:35;99798.81;;;19.22;100.00
804;BME280;25687;49.976;8.240;2023-06-10T01:23:02;99803.78;;;19.15;100.00
804;BME280;25687;49.976;8.240;2023-06-10T01:25:29;99809.50;;;19.00;100.00
804;BME280;25687;49.976;8.240;2023-06-10T01:28:12;99803.41;;;18.82;100.00
804;BME280;25687;49.976;8.240;2023-06-10T01:33:43;99806.47;;;18.67;100.00
804;BME280;25687;49.976;8.240;2023-06-10T01:36:11;99808.88;;;18.51;100.00
804;BME280;25687;49.976;8.240;2023-06-10T01:38:40;99813.53;;;18.47;100.00
804;BME280;25687;49.976;8.240;2023-06-10T01:41:07;99807.09;;;18.42;100.00
804;BME280;25687;49.976;8.240;2023-06-10T01:43:33;99806.72;;;18.36;100.00
804;BME280;25687;49.976;8.240;2023-06-10T01:45:59;99807.28;;;18.30;100.00
804;BME280;25687;49.976;8.240;2023-06-10T01:48:25;99810.31;;;18.16;100.00
804;BME280;25687;49.976;8.240;2023-06-10T01:50:50;99808.72;;;18.05;100.00
804;BME280;25687;49.976;8.240;2023-06-10T01:53:15;99805.97;;;17.97;100.00
804;BME280;25687;49.976;8.240;2023-06-10T01:55:40;99808.56;;;17.87;100.00
804;BME280;25687;49.976;8.240;2023-06-10T01:58:06;99810.06;;;17.80;100.00
804;BME280;25687;49.976;8.240;2023-06-10T02:00:31;99810.91;;;17.80;100.00
804;BME280;25687;49.976;8.240;2023-06-10T02:02:56;99805.94;;;17.77;100.00
804;BME280;25687;49.976;8.240;2023-06-10T02:05:21;99805.94;;;17.67;100.00
804;BME280;25687;49.976;8.240;2023-06-10T02:07:47;99806.63;;;17.59;100.00
804;BME280;25687;49.976;8.240;2023-06-10T02:10:13;99806.78;;;17.58;100.00
804;BME280;25687;49.976;8.240;2023-06-10T02:12:38;99809.22;;;17.50;100.00
804;BME280;25687;49.976;8.240;2023-06-10T02:15:03;99805.13;;;17.47;100.00
804;BME280;25687;49.976;8.240;2023-06-10T02:17:29;99813.22;;;17.44;100.00
804;BME280;25687;49.976;8.240;2023-06-10T02:19:55;99819.06;;;17.46;100.00
804;BME280;25687;49.976;8.240;2023-06-10T02:22:22;99810.63;;;17.44;100.00
804;BME280;25687;49.976;8.240;2023-06-10T02:24:48;99819.75;;;17.38;100.00
804;BME280;25687;49.976;8.240;2023-06-10T02:27:15;99816.88;;;17.32;100.00
804;BME280;25687;49.976;8.240;2023-06-10T02:29:40;99816.97;;;17.20;100.00
804;BME280;25687;49.976;8.240;2023-06-10T02:32:06;99811.50;;;17.14;100.00
804;BME280;25687;49.976;8.240;2023-06-10T02:34:32;99814.09;;;17.14;100.00
804;BME280;25687;49.976;8.240;2023-06-10T02:36:57;99819.44;;;17.12;100.00
804;BME280;25687;49.976;8.240;2023-06-10T02:39:22;99819.44;;;17.12;100.00
804;BME280;25687;49.976;8.240;2023-06-10T02:41:47;99821.19;;;17.02;100.00
804;BME280;25687;49.976;8.240;2023-06-10T02:44:13;99820.50;;;17.00;100.00
804;BME280;25687;49.976;8.240;2023-06-10T02:46:38;99820.19;;;16.93;100.00
804;BME280;25687;49.976;8.240;2023-06-10T02:49:03;99827.16;;;16.92;100.00
804;BME280;25687;49.976;8.240;2023-06-10T02:51:28;99816.31;;;16.87;100.00
804;BME280;25687;49.976;8.240;2023-06-10T02:53:54;99820.44;;;16.90;100.00
804;BME280;25687;49.976;8.240;2023-06-10T02:56:19;99822.84;;;16.82;100.00
804;BME280;25687;49.976;8.240;2023-06-10T02:58:45;99828.63;;;16.85;100.00
804;BME280;25687;49.976;8.240;2023-06-10T03:01:10;99828.06;;;16.82;100.00
804;BME280;25687;49.976;8.240;2023-06-10T03:03:36;99824.84;;;16.68;100.00
804;BME280;25687;49.976;8.240;2023-06-10T03:06:05;99824.31;;;16.65;100.00
804;BME280;25687;49.976;8.240;2023-06-10T03:08:31;99826.91;;;16.65;100.00
804;BME280;25687;49.976;8.240;2023-06-10T03:10:56;99824.97;;;16.67;100.00
804;BME280;25687;49.976;8.240;2023-06-10T03:13:21;99830.56;;;16.62;100.00
804;BME280;25687;49.976;8.240;2023-06-10T03:15:46;99826.34;;;16.61;100.00
804;BME280;25687;49.976;8.240;2023-06-10T03:18:12;99820.41;;;16.49;100.00
804;BME280;25687;49.976;8.240;2023-06-10T03:20:37;99829.19;;;16.58;100.00
804;BME280;25687;49.976;8.240;2023-06-10T03:23:05;99829.19;;;16.58;100.00
804;BME280;25687;49.976;8.240;2023-06-10T03:25:32;99830.56;;;16.62;100.00
804;BME280;25687;49.976;8.240;2023-06-10T03:27:57;99834.38;;;16.58;100.00
804;BME280;25687;49.976;8.240;2023-06-10T03:30:22;99827.66;;;16.55;100.00
804;BME280;25687;49.976;8.240;2023-06-10T03:32:47;99831.06;;;16.56;100.00
804;BME280;25687;49.976;8.240;2023-06-10T03:35:13;99837.66;;;16.60;100.00
804;BME280;25687;49.976;8.240;2023-06-10T03:37:40;99837.34;;;16.53;100.00
804;BME280;25687;49.976;8.240;2023-06-10T03:40:06;99837.25;;;16.55;100.00
804;BME280;25687;49.976;8.240;2023-06-10T03:42:32;99825.78;;;16.57;100.00
804;BME280;25687;49.976;8.240;2023-06-10T03:44:57;99834.22;;;16.59;100.00
804;BME280;25687;49.976;8.240;2023-06-10T03:47:23;99834.69;;;16.65;100.00
804;BME280;25687;49.976;8.240;2023-06-10T03:49:48;99838.81;;;16.67;100.00
804;BME280;25687;49.976;8.240;2023-06-10T03:52:13;99842.63;;;16.73;100.00
804;BME280;25687;49.976;8.240;2023-06-10T03:54:38;99833.25;;;16.82;100.00
804;BME280;25687;49.976;8.240;2023-06-10T03:57:04;99845.03;;;16.86;100.00
804;BME280;25687;49.976;8.240;2023-06-10T03:59:30;99846.16;;;16.93;100.00
804;BME280;25687;49.976;8.240;2023-06-10T04:01:55;99850.16;;;16.97;100.00
804;BME280;25687;49.976;8.240;2023-06-10T04:04:21;99847.72;;;17.05;100.00
804;BME280;25687;49.976;8.240;2023-06-10T04:06:46;99842.13;;;17.10;100.00
804;BME280;25687;49.976;8.240;2023-06-10T04:09:12;99846.00;;;17.16;100.00
804;BME280;25687;49.976;8.240;2023-06-10T04:11:38;99851.75;;;17.19;100.00
804;BME280;25687;49.976;8.240;2023-06-10T04:14:03;99851.88;;;17.27;100.00
804;BME280;25687;49.976;8.240;2023-06-10T04:16:28;99846.69;;;17.27;100.00
804;BME280;25687;49.976;8.240;2023-06-10T04:18:54;99847.41;;;17.39;100.00
804;BME280;25687;49.976;8.240;2023-06-10T04:21:19;99845.78;;;17.48;100.00
804;BME280;25687;49.976;8.240;2023-06-10T04:23:45;99844.16;;;17.57;100.00
804;BME280;25687;49.976;8.240;2023-06-10T04:26:10;99838.94;;;17.67;100.00
804;BME280;25687;49.976;8.240;2023-06-10T04:28:37;99845.94;;;17.76;100.00
804;BME280;25687;49.976;8.240;2023-06-10T04:31:02;99845.81;;;17.87;100.00
804;BME280;25687;49.976;8.240;2023-06-10T04:33:29;99844.44;;;17.93;100.00
804;BME280;25687;49.976;8.240;2023-06-10T04:35:55;99857.47;;;18.03;100.00
804;BME280;25687;49.976;8.240;2023-06-10T04:38:20;99856.91;;;18.09;100.00
804;BME280;25687;49.976;8.240;2023-06-10T04:40:46;99861.41;;;18.17;100.00
804;BME280;25687;49.976;8.240;2023-06-10T04:43:11;99861.25;;;18.28;100.00
804;BME280;25687;49.976;8.240;2023-06-10T04:45:37;99867.00;;;18.42;100.00
804;BME280;25687;49.976;8.240;2023-06-10T04:48:02;99863.41;;;18.52;100.00
804;BME280;25687;49.976;8.240;2023-06-10T04:50:28;99871.34;;;18.70;100.00
804;BME280;25687;49.976;8.240;2023-06-10T04:52:53;99866.47;;;18.85;100.00
804;BME280;25687;49.976;8.240;2023-06-10T04:55:22;99867.50;;;19.02;100.00
804;BME280;25687;49.976;8.240;2023-06-10T04:57:47;99867.09;;;19.07;100.00
804;BME280;25687;49.976;8.240;2023-06-10T05:00:13;99868.53;;;19.19;100.00
804;BME280;25687;49.976;8.240;2023-06-10T05:02:39;99869.13;;;19.41;100.00
804;BME280;25687;49.976;8.240;2023-06-10T05:05:04;99857.56;;;19.62;100.00
804;BME280;25687;49.976;8.240;2023-06-10T05:07:29;99867.47;;;19.86;100.00
804;BME280;25687;49.976;8.240;2023-06-10T05:09:55;99865.84;;;20.11;100.00
804;BME280;25687;49.976;8.240;2023-06-10T05:12:20;99870.56;;;20.34;100.00
804;BME280;25687;49.976;8.240;2023-06-10T05:14:45;99864.19;;;20.55;100.00
804;BME280;25687;49.976;8.240;2023-06-10T05:17:11;99866.81;;;20.55;93.38
804;BME280;25687;49.976;8.240;2023-06-10T05:19:38;99873.50;;;20.84;92.63
804;BME280;25687;49.976;8.240;2023-06-10T05:22:03;99865.59;;;21.02;89.50
804;BME280;25687;49.976;8.240;2023-06-10T05:24:28;99870.03;;;21.09;96.29
804;BME280;25687;49.976;8.240;2023-06-10T05:26:54;99863.81;;;21.10;96.02
804;BME280;25687;49.976;8.240;2023-06-10T05:29:19;99868.97;;;21.37;92.85
804;BME280;25687;49.976;8.240;2023-06-10T05:31:45;99867.59;;;21.67;86.71
804;BME280;25687;49.976;8.240;2023-06-10T05:34:10;99870.38;;;21.57;86.28
804;BME280;25687;49.976;8.240;2023-06-10T05:36:35;99870.22;;;21.84;86.97
804;BME280;25687;49.976;8.240;2023-06-10T05:39:00;99864.16;;;22.16;81.11
804;BME280;25687;49.976;8.240;2023-06-10T05:41:26;99869.75;;;22.13;79.43
804;BME280;25687;49.976;8.240;2023-06-10T05:43:51;99877.94;;;22.02;72.78
804;BME280;25687;49.976;8.240;2023-06-10T05:46:16;99868.44;;;21.92;73.91
804;BME280;25687;49.976;8.240;2023-06-10T05:48:41;99868.72;;;22.22;69.61
804;BME280;25687;49.976;8.240;2023-06-10T05:51:07;99874.47;;;22.51;66.50
804;BME280;25687;49.976;8.240;2023-06-10T05:53:32;99870.44;;;22.80;64.81
804;BME280;25687;49.976;8.240;2023-06-10T05:55:57;99879.63;;;22.76;62.35
804;BME280;25687;49.976;8.240;2023-06-10T05:58:24;99880.34;;;23.09;60.91
804;BME280;25687;49.976;8.240;2023-06-10T06:00:49;99885.88;;;23.54;59.82
804;BME280;25687;49.976;8.240;2023-06-10T06:03:15;99880.72;;;23.92;56.59
804;BME280;25687;49.976;8.240;2023-06-10T06:05:40;99876.47;;;24.59;54.38
804;BME280;25687;49.976;8.240;2023-06-10T06:08:06;99882.75;;;25.03;51.37
804;BME280;25687;49.976;8.240;2023-06-10T06:10:32;99890.41;;;25.35;49.66
804;BME280;25687;49.976;8.240;2023-06-10T06:12:57;99883.88;;;25.30;48.03
804;BME280;25687;49.976;8.240;2023-06-10T06:15:23;99882.09;;;26.18;45.92
804;BME280;25687;49.976;8.240;2023-06-10T06:17:48;99884.16;;;26.86;43.31
804;BME280;25687;49.976;8.240;2023-06-10T06:20:13;99878.94;;;26.64;43.04
804;BME280;25687;49.976;8.240;2023-06-10T06:22:39;99890.19;;;26.45;43.19
804;BME280;25687;49.976;8.240;2023-06-10T06:25:04;99881.88;;;26.48;43.12
804;BME280;25687;49.976;8.240;2023-06-10T06:27:30;99883.56;;;27.46;39.74
804;BME280;25687;49.976;8.240;2023-06-10T06:29:56;99886.47;;;27.91;39.51
804;BME280;25687;49.976;8.240;2023-06-10T06:32:21;99889.44;;;29.34;37.23
804;BME280;25687;49.976;8.240;2023-06-10T06:34:47;99887.84;;;28.67;37.31
804;BME280;25687;49.976;8.240;2023-06-10T06:37:14;99890.19;;;28.96;37.41
804;BME280;25687;49.976;8.240;2023-06-10T06:39:40;99899.75;;;30.06;35.60
804;BME280;25687;49.976;8.240;2023-06-10T06:42:05;99903.66;;;29.72;35.35
804;BME280;25687;49.976;8.240;2023-06-10T06:44:30;99907.28;;;29.77;35.29
804;BME280;25687;49.976;8.240;2023-06-10T06:46:56;99904.16;;;29.10;36.12
804;BME280;25687;49.976;8.240;2023-06-10T06:49:21;99907.75;;;28.90;35.80
804;BME280;25687;49.976;8.240;2023-06-10T06:51:46;99910.00;;;29.71;35.35
804;BME280;25687;49.976;8.240;2023-06-10T06:54:11;99903.94;;;30.39;34.21
804;BME280;25687;49.976;8.240;2023-06-10T06:56:37;99913.66;;;30.02;33.90
804;BME280;25687;49.976;8.240;2023-06-10T06:59:03;99911.78;;;30.27;34.14
804;BME280;25687;49.976;8.240;2023-06-10T07:01:29;99910.06;;;31.14;32.81
804;BME280;25687;49.976;8.240;2023-06-10T07:03:54;99921.66;;;31.93;32.10
804;BME280;25687;49.976;8.240;2023-06-10T07:06:20;99920.97;;;30.06;33.19
804;BME280;25687;49.976;8.240;2023-06-10T07:08:45;99918.63;;;29.91;34.42
804;BME280;25687;49.976;8.240;2023-06-10T07:11:10;99908.31;;;29.76;34.37
804;BME280;25687;49.976;8.240;2023-06-10T07:13:36;99914.25;;;30.48;33.59
804;BME280;25687;49.976;8.240;2023-06-10T07:16:01;99923.50;;;30.20;33.46
804;BME280;25687;49.976;8.240;2023-06-10T07:18:26;99916.66;;;29.03;34.86
804;BME280;25687;49.976;8.240;2023-06-10T07:20:51;99911.50;;;29.53;34.70
804;BME280;25687;49.976;8.240;2023-06-10T07:23:17;99922.44;;;29.70;34.40
804;BME280;25687;49.976;8.240;2023-06-10T07:25:42;99915.84;;;30.93;32.61
804;BME280;25687;49.976;8.240;2023-06-10T07:28:07;99923.47;;;31.08;32.25
804;BME280;25687;49.976;8.240;2023-06-10T07:30:32;99917.88;;;31.28;32.77
804;BME280;25687;49.976;8.240;2023-06-10T07:32:58;99928.13;;;31.85;31.37
804;BME280;25687;49.976;8.240;2023-06-10T07:35:23;99919.84;;;32.53;30.66
804;BME280;25687;49.976;8.240;2023-06-10T07:37:48;99926.13;;;31.80;31.05
804;BME280;25687;49.976;8.240;2023-06-10T07:40:14;99922.56;;;31.14;31.71
804;BME280;25687;49.976;8.240;2023-06-10T07:42:39;99924.22;;;31.57;31.71
804;BME280;25687;49.976;8.240;2023-06-10T07:45:05;99916.06;;;31.10;32.09
804;BME280;25687;49.976;8.240;2023-06-10T07:47:33;99921.38;;;31.10;32.41
804;BME280;25687;49.976;8.240;2023-06-10T07:49:59;99922.56;;;31.14;32.81
804;BME280;25687;49.976;8.240;2023-06-10T07:52:24;99927.25;;;32.27;30.34
804;BME280;25687;49.976;8.240;2023-06-10T07:54:51;99927.25;;;33.44;28.94
804;BME280;25687;49.976;8.240;2023-06-10T07:57:16;99920.88;;;33.62;29.29
804;BME280;25687;49.976;8.240;2023-06-10T07:59:41;99924.31;;;32.76;29.82
804;BME280;25687;49.976;8.240;2023-06-10T08:02:06;99923.66;;;32.57;29.96
804;BME280;25687;49.976;8.240;2023-06-10T08:04:32;99918.63;;;32.96;30.55
804;BME280;25687;49.976;8.240;2023-06-10T08:06:57;99921.75;;;32.93;29.62
804;BME280;25687;49.976;8.240;2023-06-10T08:09:22;99928.97;;;33.67;29.65
804;BME280;25687;49.976;8.240;2023-06-10T08:11:48;99932.44;;;33.51;28.24
804;BME280;25687;49.976;8.240;2023-06-10T08:14:14;99931.59;;;33.50;28.03
804;BME280;25687;49.976;8.240;2023-06-10T08:16:39;99926.38;;;33.72;27.75
804;BME280;25687;49.976;8.240;2023-06-10T08:19:05;99917.63;;;32.49;30.44
804;BME280;25687;49.976;8.240;2023-06-10T08:21:30;99920.50;;;31.89;30.96
804;BME280;25687;49.976;8.240;2023-06-10T08:23:56;99921.22;;;32.43;30.35
804;BME280;25687;49.976;8.240;2023-06-10T08:26:21;99922.66;;;33.56;28.74
804;BME280;25687;49.976;8.240;2023-06-10T08:28:47;99926.50;;;34.11;27.90
804;BME280;25687;49.976;8.240;2023-06-10T08:31:12;99934.50;;;34.29;27.87
804;BME280;25687;49.976;8.240;2023-06-10T08:33:37;99931.44;;;33.86;27.98
804;BME280;25687;49.976;8.240;2023-06-10T08:36:03;99926.91;;;34.37;27.75
804;BME280;25687;49.976;8.240;2023-06-10T08:38:28;99928.44;;;33.36;29.02
804;BME280;25687;49.976;8.240;2023-06-10T08:40:56;99930.94;;;33.14;29.46
804;BME280;25687;49.976;8.240;2023-06-10T08:43:33;99921.66;;;33.17;29.36
804;BME280;25687;49.976;8.240;2023-06-10T08:46:00;99932.31;;;32.76;30.15
804;BME280;25687;49.976;8.240;2023-06-10T08:48:29;99930.91;;;32.14;31.11
804;BME280;25687;49.976;8.240;2023-06-10T08:50:56;99921.28;;;31.89;31.03
804;BME280;25687;49.976;8.240;2023-06-10T08:53:23;99921.81;;;32.45;30.34
804;BME280;25687;49.976;8.240;2023-06-10T08:55:51;99922.81;;;32.09;31.18
804;BME280;25687;49.976;8.240;2023-06-10T08:58:17;99924.22;;;31.57;31.62
804;BME280;25687;49.976;8.240;2023-06-10T09:00:43;99917.53;;;31.54;31.78
804;BME280;25687;49.976;8.240;2023-06-10T09:03:08;99909.59;;;31.36;32.53
804;BME280;25687;49.976;8.240;2023-06-10T09:05:34;99914.09;;;31.66;31.46
804;BME280;25687;49.976;8.240;2023-06-10T09:08:01;99915.16;;;30.97;33.59
804;BME280;25687;49.976;8.240;2023-06-10T09:10:27;99909.66;;;30.36;34.07
804;BME280;25687;49.976;8.240;2023-06-10T09:12:52;99906.56;;;32.29;32.41
804;BME280;25687;49.976;8.240;2023-06-10T09:15:18;99909.25;;;32.93;30.39
804;BME280;25687;49.976;8.240;2023-06-10T09:17:43;99907.06;;;32.78;30.06
804;BME280;25687;49.976;8.240;2023-06-10T09:20:10;99904.47;;;33.70;28.88
804;BME280;25687;49.976;8.240;2023-06-10T09:22:36;99904.41;;;33.48;29.59
804;BME280;25687;49.976;8.240;2023-06-10T09:25:03;99909.63;;;34.28;28.75
804;BME280;25687;49.976;8.240;2023-06-10T09:27:30;99905.16;;;34.11;27.71
804;BME280;25687;49.976;8.240;2023-06-10T09:29:56;99902.19;;;34.30;28.27
804;BME280;25687;49.976;8.240;2023-06-10T09:32:23;99905.13;;;33.77;28.69
804;BME280;25687;49.976;8.240;2023-06-10T09:34:49;99903.94;;;32.70;29.69
804;BME280;25687;49.976;8.240;2023-06-10T09:37:25;99897.13;;;32.02;31.06
804;BME280;25687;49.976;8.240;2023-06-10T09:40:07;99892.63;;;32.15;31.47
804;BME280;25687;49.976;8.240;2023-06-10T09:42:34;99895.75;;;32.00;31.58
804;BME280;25687;49.976;8.240;2023-06-10T09:45:01;99878.94;;;31.03;32.55
804;BME280;25687;49.976;8.240;2023-06-10T09:47:26;99884.38;;;31.69;33.09
804;BME280;25687;49.976;8.240;2023-06-10T09:49:51;99891.41;;;32.29;31.38
804;BME280;25687;49.976;8.240;2023-06-10T09:52:26;99876.72;;;33.83;29.19
804;BME280;25687;49.976;8.240;2023-06-10T09:54:53;99884.06;;;34.32;28.80
804;BME280;25687;49.976;8.240;2023-06-10T09:57:21;99888.38;;;33.19;29.46
804;BME280;25687;49.976;8.240;2023-06-10T09:59:47;99890.66;;;33.39;29.26
804;BME280;25687;49.976;8.240;2023-06-10T10:02:16;99883.69;;;32.69;29.44
804;BME280;25687;49.976;8.240;2023-06-10T10:04:43;99876.13;;;32.89;29.31
804;BME280;25687;49.976;8.240;2023-06-10T10:07:09;99876.84;;;34.94;27.46
804;BME280;25687;49.976;8.240;2023-06-10T10:09:41;99876.28;;;34.48;27.77
804;BME280;25687;49.976;8.240;2023-06-10T10:12:12;99881.63;;;34.31;28.33
804;BME280;25687;49.976;8.240;2023-06-10T10:14:38;99880.00;;;33.56;28.28
804;BME280;25687;49.976;8.240;2023-06-10T10:17:10;99876.81;;;32.85;29.10
804;BME280;25687;49.976;8.240;2023-06-10T10:19:50;99877.59;;;33.72;28.07
804;BME280;25687;49.976;8.240;2023-06-10T10:22:26;99884.06;;;33.93;28.61
804;BME280;25687;49.976;8.240;2023-06-10T10:25:00;99878.97;;;33.28;29.55
804;BME280;25687;49.976;8.240;2023-06-10T10:27:28;99877.34;;;33.73;28.64
804;BME280;25687;49.976;8.240;2023-06-10T10:29:54;99882.44;;;33.58;28.97
804;BME280;25687;49.976;8.240;2023-06-10T10:32:32;99866.94;;;32.44;30.43
804;BME280;25687;49.976;8.240;2023-06-10T10:35:08;99864.78;;;34.69;27.73
804;BME280;25687;49.976;8.240;2023-06-10T10:37:33;99868.34;;;35.95;26.64
804;BME280;25687;49.976;8.240;2023-06-10T10:40:01;99878.28;;;34.18;28.06
804;BME280;25687;49.976;8.240;2023-06-10T10:42:28;99866.16;;;32.32;30.59
804;BME280;25687;49.976;8.240;2023-06-10T10:44:54;99858.97;;;31.73;31.42
804;BME280;25687;49.976;8.240;2023-06-10T10:47:27;99864.88;;;30.03;34.25
804;BME280;25687;49.976;8.240;2023-06-10T10:49:54;99856.78;;;29.40;36.21
804;BME280;25687;49.976;8.240;2023-06-10T10:52:19;99846.19;;;28.95;35.54
804;BME280;25687;49.976;8.240;2023-06-10T10:54:46;99845.44;;;28.81;37.40
804;BME280;25687;49.976;8.240;2023-06-10T10:57:23;99859.75;;;28.73;38.08
804;BME280;25687;49.976;8.240;2023-06-10T11:02:33;99843.97;;;28.26;39.84
804;BME280;25687;49.976;8.240;2023-06-10T11:05:01;99838.22;;;28.43;39.23
804;BME280;25687;49.976;8.240;2023-06-10T11:07:26;99843.75;;;28.34;40.05
804;BME280;25687;49.976;8.240;2023-06-10T11:09:59;99850.47;;;28.30;40.18
804;BME280;25687;49.976;8.240;2023-06-10T11:12:25;99839.06;;;28.37;39.72
804;BME280;25687;49.976;8.240;2023-06-10T11:14:54;99834.75;;;28.49;38.93
804;BME280;25687;49.976;8.240;2023-06-10T11:17:20;99834.06;;;28.80;38.97
804;BME280;25687;49.976;8.240;2023-06-10T11:19:46;99840.22;;;28.54;37.89
804;BME280;25687;49.976;8.240;2023-06-10T11:22:16;99840.31;;;28.27;38.68
804;BME280;25687;49.976;8.240;2023-06-10T11:24:47;99827.63;;;28.49;40.04
804;BME280;25687;49.976;8.240;2023-06-10T11:27:15;99836.53;;;28.75;38.44
804;BME280;25687;49.976;8.240;2023-06-10T11:29:58;99827.41;;;28.51;38.98
804;BME280;25687;49.976;8.240;2023-06-10T11:32:42;99833.59;;;28.25;39.47
804;BME280;25687;49.976;8.240;2023-06-10T11:35:08;99826.66;;;28.37;41.51
804;BME280;25687;49.976;8.240;2023-06-10T11:37:33;99821.13;;;28.45;39.60
804;BME280;25687;49.976;8.240;2023-06-10T11:39:58;99826.09;;;28.15;40.27
804;BME280;25687;49.976;8.240;2023-06-10T11:42:24;99825.25;;;27.94;41.24
804;BME280;25687;49.976;8.240;2023-06-10T11:44:50;99830.16;;;27.97;40.81
804;BME280;25687;49.976;8.240;2023-06-10T11:47:17;99814.31;;;28.11;41.06
804;BME280;25687;49.976;8.240;2023-06-10T11:49:42;99814.16;;;28.64;41.55
804;BME280;25687;49.976;8.240;2023-06-10T11:52:08;99821.19;;;28.91;40.22
804;BME280;25687;49.976;8.240;2023-06-10T11:54:33;99811.22;;;28.93;40.29
804;BME280;25687;49.976;8.240;2023-06-10T11:56:59;99812.97;;;29.06;39.40
804;BME280;25687;49.976;8.240;2023-06-10T11:59:33;99797.41;;;28.77;39.64
804;BME280;25687;49.976;8.240;2023-06-10T12:01:58;99811.22;;;28.93;40.25
804;BME280;25687;49.976;8.240;2023-06-10T12:04:24;99804.38;;;28.72;39.21
804;BME280;25687;49.976;8.240;2023-06-10T12:06:52;99804.56;;;28.70;39.55
804;BME280;25687;49.976;8.240;2023-06-10T12:09:26;99809.97;;;28.95;38.90
804;BME280;25687;49.976;8.240;2023-06-10T12:11:59;99805.63;;;29.01;38.34
804;BME280;25687;49.976;8.240;2023-06-10T12:14:56;99791.25;;;28.90;38.08
804;BME280;25687;49.976;8.240;2023-06-10T12:17:23;99796.09;;;29.32;37.69
804;BME280;25687;49.976;8.240;2023-06-10T12:19:50;99798.78;;;28.93;36.94
804;BME280;25687;49.976;8.240;2023-06-10T12:22:16;99786.09;;;29.02;36.96
804;BME280;25687;49.976;8.240;2023-06-10T12:24:46;99800.31;;;29.08;36.58
804;BME280;25687;49.976;8.240;2023-06-10T12:27:22;99795.19;;;29.13;36.38
804;BME280;25687;49.976;8.240;2023-06-10T12:29:51;99777.16;;;29.28;36.02
804;BME280;25687;49.976;8.240;2023-06-10T12:32:19;99775.84;;;29.12;36.10
804;BME280;25687;49.976;8.240;2023-06-10T12:34:45;99782.66;;;29.27;36.15
804;BME280;25687;49.976;8.240;2023-06-10T12:37:12;99781.63;;;29.35;34.71
804;BME280;25687;49.976;8.240;2023-06-10T12:39:39;99778.06;;;29.73;34.38
804;BME280;25687;49.976;8.240;2023-06-10T12:42:05;99781.66;;;30.04;34.27
804;BME280;25687;49.976;8.240;2023-06-10T12:44:35;99795.41;;;29.94;33.66
804;BME280;25687;49.976;8.240;2023-06-10T12:47:10;99782.19;;;30.13;32.60
804;BME280;25687;49.976;8.240;2023-06-10T12:49:37;99788.72;;;29.91;33.62
804;BME280;25687;49.976;8.240;2023-06-10T12:52:04;99794.63;;;29.87;33.83
804;BME280;25687;49.976;8.240;2023-06-10T12:54:29;99773.34;;;29.75;33.74
804;BME280;25687;49.976;8.240;2023-06-10T12:56:54;99777.84;;;30.00;33.63
804;BME280;25687;49.976;8.240;2023-06-10T12:59:20;99778.28;;;30.15;32.72
804;BME280;25687;49.976;8.240;2023-06-10T13:01:50;99771.50;;;30.01;32.48
804;BME280;25687;49.976;8.240;2023-06-10T13:04:16;99771.06;;;29.78;32.76
804;BME280;25687;49.976;8.240;2023-06-10T13:06:43;99779.41;;;29.82;32.59
804;BME280;25687;49.976;8.240;2023-06-10T13:09:08;99782.34;;;29.49;32.60
804;BME280;25687;49.976;8.240;2023-06-10T13:11:34;99782.88;;;29.32;32.77
804;BME280;25687;49.976;8.240;2023-06-10T13:14:00;99774.66;;;29.40;33.10
804;BME280;25687;49.976;8.240;2023-06-10T13:16:26;99772.84;;;29.85;32.08
804;BME280;25687;49.976;8.240;2023-06-10T13:18:53;99766.94;;;29.83;33.03
804;BME280;25687;49.976;8.240;2023-06-10T13:21:18;99763.66;;;29.62;33.14
804;BME280;25687;49.976;8.240;2023-06-10T13:23:44;99764.25;;;29.89;32.83
804;BME280;25687;49.976;8.240;2023-06-10T13:26:11;99768.56;;;29.84;33.30